Time;durP1;ratioP1;P1;durP2;ratioP2;P2;SDS_P1;SDS_P2;PMS_P1;PMS_P2;Temp;Humidity;BMP_temperature;BMP_pressure;BME280_temperature;BME280_humidity;BME280_pressure;Samples;Min_cycle;Max_cycle;Signal;HPM_P1;HPM_P2
2021/05/23 00:00:24;;;;;;;1.00;1.00;;;3.40;99.90;;;;;;4993828;28;20034;-72
2021/05/23 00:02:50;;;;;;;0.95;0.90;;;3.40;99.90;;;;;;4982788;28;20054;-72
2021/05/23 00:05:21;;;;;;;0.90;0.70;;;3.30;99.90;;;;;;4996166;28;20460;-72
2021/05/23 00:07:56;;;;;;;1.30;0.90;;;3.20;99.90;;;;;;5003336;28;20026;-72
2021/05/23 00:10:26;;;;;;;0.77;0.77;;;3.30;99.90;;;;;;4993490;28;20053;-72
2021/05/23 00:12:57;;;;;;;1.08;0.90;;;3.30;99.90;;;;;;4994186;28;20062;-72
2021/05/23 00:15:43;;;;;;;;;;;3.30;99.90;;;;;;4980700;28;20035;-72
2021/05/23 00:18:10;;;;;;;1.52;0.82;;;3.30;99.90;;;;;;4993166;28;19906;-72
2021/05/23 00:20:36;;;;;;;0.70;0.70;;;3.30;99.90;;;;;;4979886;28;20022;-72
2021/05/23 00:23:03;;;;;;;0.93;0.73;;;3.30;99.90;;;;;;4993960;28;20030;-72
2021/05/23 00:25:29;;;;;;;0.80;0.80;;;3.20;99.90;;;;;;4995311;28;20023;-72
2021/05/23 00:27:55;;;;;;;1.00;0.90;;;3.20;99.90;;;;;;5005585;28;20031;-72
2021/05/23 00:30:21;;;;;;;0.75;0.75;;;3.20;99.90;;;;;;4980175;28;20449;-72
2021/05/23 00:32:47;;;;;;;2.10;0.88;;;3.10;99.90;;;;;;4979954;28;20105;-72
2021/05/23 00:35:14;;;;;;;0.80;0.80;;;3.10;99.90;;;;;;4991877;28;20393;-72
2021/05/23 00:37:40;;;;;;;1.25;0.70;;;3.10;99.90;;;;;;4993023;28;20050;-72
2021/05/23 00:40:06;;;;;;;2.03;0.75;;;3.10;99.90;;;;;;4993342;28;20030;-72
2021/05/23 00:42:32;;;;;;;1.05;0.95;;;3.10;99.90;;;;;;5006895;28;20030;-72
2021/05/23 00:44:59;;;;;;;0.80;0.80;;;3.10;99.90;;;;;;5000984;28;20018;-72
2021/05/23 00:47:24;;;;;;;1.45;1.00;;;3.10;99.90;;;;;;4986259;28;20150;-72
2021/05/23 00:49:50;;;;;;;1.80;0.90;;;3.10;99.90;;;;;;4998167;28;20113;-72
2021/05/23 00:52:17;;;;;;;0.80;0.80;;;3.10;99.90;;;;;;5001432;28;20023;-72
2021/05/23 00:54:43;;;;;;;0.85;0.85;;;3.10;99.90;;;;;;4993191;28;20030;-72
2021/05/23 00:57:08;;;;;;;0.70;0.70;;;3.10;99.90;;;;;;4992913;28;20042;-72
2021/05/23 00:59:34;;;;;;;0.80;0.80;;;3.10;99.90;;;;;;4992960;28;20015;-72
2021/05/23 01:02:00;;;;;;;1.15;0.80;;;3.10;99.90;;;;;;4993002;28;20414;-72
2021/05/23 01:04:26;;;;;;;0.85;0.80;;;3.10;99.90;;;;;;4993018;28;20034;-72
2021/05/23 01:06:52;;;;;;;0.73;0.73;;;3.10;99.90;;;;;;5006538;28;20121;-72
2021/05/23 01:09:18;;;;;;;1.17;0.93;;;3.20;99.90;;;;;;5004597;28;20034;-72
2021/05/23 01:11:43;;;;;;;1.35;0.93;;;3.20;99.90;;;;;;5009106;28;20022;-72
2021/05/23 01:14:12;;;;;;;0.80;0.80;;;3.20;99.90;;;;;;4993046;28;20026;-72
2021/05/23 01:16:39;;;;;;;1.10;1.00;;;3.10;99.90;;;;;;4992448;28;20490;-72
2021/05/23 01:19:17;;;;;;;1.75;0.90;;;3.10;99.90;;;;;;4993000;28;20027;-72
2021/05/23 01:21:48;;;;;;;0.98;0.73;;;3.10;99.90;;;;;;5006816;28;20092;-72
2021/05/23 01:24:31;;;;;;;0.75;0.75;;;3.10;99.90;;;;;;4984726;28;20085;-72
2021/05/23 01:26:57;;;;;;;1.35;0.82;;;3.10;99.90;;;;;;4989793;28;20054;-72
2021/05/23 01:29:23;;;;;;;0.93;0.70;;;3.00;99.90;;;;;;4992466;28;20493;-72
2021/05/23 01:31:52;;;;;;;0.90;0.90;;;3.00;99.90;;;;;;5006387;28;20026;-72
2021/05/23 01:34:22;;;;;;;2.35;0.80;;;3.00;99.90;;;;;;4992512;28;20088;-72
2021/05/23 01:36:51;;;;;;;0.77;0.77;;;3.00;99.90;;;;;;5005822;28;20045;-72
2021/05/23 01:39:18;;;;;;;0.95;0.95;;;3.00;99.90;;;;;;5006004;28;20018;-72
2021/05/23 01:41:44;;;;;;;1.10;1.00;;;3.00;99.90;;;;;;4974934;28;20026;-72
2021/05/23 01:44:11;;;;;;;1.17;0.93;;;3.00;99.90;;;;;;4991576;28;20018;-72
2021/05/23 01:46:38;;;;;;;0.60;0.60;;;3.00;99.90;;;;;;4985603;28;20504;-72
2021/05/23 01:49:04;;;;;;;1.08;1.00;;;3.00;99.90;;;;;;4999009;28;20058;-72
2021/05/23 01:51:30;;;;;;;0.70;0.70;;;3.00;99.90;;;;;;4991976;28;20418;-72
2021/05/23 01:53:56;;;;;;;0.73;0.73;;;3.00;99.90;;;;;;4992270;28;20029;-72
2021/05/23 01:56:22;;;;;;;0.90;0.90;;;3.00;99.90;;;;;;4991822;28;20194;-72
2021/05/23 01:58:47;;;;;;;0.88;0.82;;;3.00;99.90;;;;;;5001479;28;20030;-72
2021/05/23 02:01:13;;;;;;;0.70;0.70;;;3.00;99.90;;;;;;4996949;28;20030;-72
2021/05/23 02:03:39;;;;;;;0.75;0.75;;;3.00;99.90;;;;;;4992175;28;20029;-72
2021/05/23 02:06:05;;;;;;;0.80;0.80;;;3.00;99.90;;;;;;4992310;28;20061;-72
2021/05/23 02:08:32;;;;;;;2.45;0.98;;;3.00;99.90;;;;;;4991706;28;20053;-72
2021/05/23 02:11:07;;;;;;;0.90;0.90;;;2.90;99.90;;;;;;4992064;28;20152;-72
2021/05/23 02:13:34;;;;;;;0.80;0.80;;;2.90;99.90;;;;;;4991878;28;20038;-72
2021/05/23 02:16:00;;;;;;;1.13;1.02;;;2.90;99.90;;;;;;4992225;28;20069;-72
2021/05/23 02:18:29;;;;;;;0.90;0.90;;;2.90;99.90;;;;;;4991717;28;20030;-72
2021/05/23 02:20:55;;;;;;;0.90;0.90;;;2.90;99.90;;;;;;4991971;28;20026;-72
2021/05/23 02:23:22;;;;;;;0.82;0.82;;;3.00;99.90;;;;;;4992069;28;20030;-72
2021/05/23 02:25:50;;;;;;;0.73;0.73;;;3.00;99.90;;;;;;4999241;28;20025;-72
2021/05/23 02:28:17;;;;;;;1.10;1.00;;;3.00;99.90;;;;;;4977175;28;20041;-72
2021/05/23 02:30:45;;;;;;;0.82;0.80;;;3.00;99.90;;;;;;4982254;28;20109;-72
2021/05/23 02:33:13;;;;;;;1.40;0.90;;;3.00;99.90;;;;;;4972448;28;20355;-72
2021/05/23 02:35:43;;;;;;;0.70;0.70;;;3.00;99.90;;;;;;5003287;28;20069;-72
2021/05/23 02:38:09;;;;;;;0.70;0.70;;;3.00;99.90;;;;;;4991617;28;20401;-72
2021/05/23 02:40:36;;;;;;;0.80;0.75;;;2.90;99.90;;;;;;4977960;28;20026;-72
2021/05/23 02:43:03;;;;;;;0.73;0.73;;;2.90;99.90;;;;;;4992005;28;20030;-71
2021/05/23 02:45:30;;;;;;;1.40;1.00;;;2.90;99.90;;;;;;4991382;28;20030;-72
2021/05/23 02:47:56;;;;;;;1.00;0.90;;;3.00;99.90;;;;;;5001156;28;20105;-72
2021/05/23 02:50:27;;;;;;;1.20;0.90;;;2.90;99.90;;;;;;4995474;28;20418;-72
2021/05/23 02:52:54;;;;;;;0.90;0.80;;;2.90;99.90;;;;;;4991987;28;20023;-72
2021/05/23 02:55:22;;;;;;;0.70;0.70;;;2.90;99.90;;;;;;4991795;28;20108;-72
2021/05/23 02:57:48;;;;;;;0.88;0.70;;;2.90;99.90;;;;;;4992523;28;20026;-72
2021/05/23 03:00:17;;;;;;;0.80;0.80;;;2.90;99.90;;;;;;4995595;28;20109;-72
2021/05/23 03:02:45;;;;;;;1.00;0.90;;;3.00;99.90;;;;;;4994914;28;20389;-72
2021/05/23 03:05:13;;;;;;;1.38;0.88;;;3.00;99.90;;;;;;5006312;28;20049;-72
2021/05/23 03:07:41;;;;;;;0.90;0.80;;;2.90;99.90;;;;;;4997058;28;20030;-72
2021/05/23 03:10:13;;;;;;;0.80;0.80;;;2.90;99.90;;;;;;4995103;28;20509;-72
2021/05/23 03:12:39;;;;;;;1.02;0.77;;;2.90;99.90;;;;;;4994937;28;20030;-72
2021/05/23 03:15:07;;;;;;;0.88;0.88;;;2.90;99.90;;;;;;4994995;28;20030;-72
2021/05/23 03:17:32;;;;;;;0.80;0.80;;;2.80;99.90;;;;;;4994693;28;20087;-72
2021/05/23 03:19:58;;;;;;;1.05;0.70;;;2.90;99.90;;;;;;4995030;28;20097;-72
2021/05/23 03:22:24;;;;;;;1.58;1.10;;;2.80;99.90;;;;;;4994934;28;20095;-72
2021/05/23 03:24:50;;;;;;;0.70;0.70;;;2.90;99.90;;;;;;4981631;28;20014;-72
2021/05/23 03:27:16;;;;;;;1.30;1.00;;;2.90;99.90;;;;;;5006026;28;20485;-72
2021/05/23 03:29:42;;;;;;;0.90;0.90;;;2.90;99.90;;;;;;4997139;28;20113;-72
2021/05/23 03:32:07;;;;;;;0.90;0.90;;;2.90;99.90;;;;;;4994711;28;20161;-72
2021/05/23 03:34:33;;;;;;;0.80;0.80;;;2.90;99.90;;;;;;4994810;28;20117;-72
2021/05/23 03:36:59;;;;;;;0.77;0.77;;;2.90;99.90;;;;;;4994283;28;20520;-72
2021/05/23 03:39:25;;;;;;;0.70;0.70;;;2.90;99.90;;;;;;4982568;28;20030;-72
2021/05/23 03:41:51;;;;;;;1.20;0.70;;;2.90;99.90;;;;;;4992852;28;20418;-72
2021/05/23 03:44:17;;;;;;;0.60;0.60;;;2.90;99.90;;;;;;4994571;28;20059;-72
2021/05/23 03:46:42;;;;;;;1.13;0.85;;;2.90;99.90;;;;;;4994437;28;20371;-72
2021/05/23 03:49:08;;;;;;;1.08;0.98;;;2.90;99.90;;;;;;4994426;28;20097;-71
2021/05/23 03:51:34;;;;;;;0.93;0.88;;;2.90;99.90;;;;;;4994276;28;20022;-71
2021/05/23 03:53:59;;;;;;;1.10;0.80;;;2.80;99.90;;;;;;4994244;28;20025;-71
2021/05/23 03:56:25;;;;;;;1.08;0.82;;;2.90;99.90;;;;;;4994150;28;20043;-71
2021/05/23 03:58:51;;;;;;;0.85;0.85;;;2.90;99.90;;;;;;4980896;28;20117;-72
2021/05/23 04:01:17;;;;;;;0.80;0.80;;;2.80;99.90;;;;;;4994493;28;20533;-71
2021/05/23 04:03:43;;;;;;;1.83;1.15;;;2.80;99.90;;;;;;4993860;28;20032;-72
2021/05/23 04:06:09;;;;;;;1.17;0.88;;;2.80;99.90;;;;;;4994381;28;20026;-72
2021/05/23 04:08:35;;;;;;;3.15;0.90;;;2.80;99.90;;;;;;4993634;28;20022;-72
2021/05/23 04:11:08;;;;;;;1.20;1.00;;;2.80;99.90;;;;;;4993600;28;20073;-72
2021/05/23 04:13:36;;;;;;;0.82;0.82;;;2.80;99.90;;;;;;4994121;28;20477;-72
2021/05/23 04:16:02;;;;;;;1.60;1.00;;;2.80;99.90;;;;;;4993746;28;20070;-72
2021/05/23 04:18:28;;;;;;;2.75;1.00;;;2.80;99.90;;;;;;4993722;28;20061;-71
2021/05/23 04:20:53;;;;;;;0.95;0.80;;;2.80;99.90;;;;;;4990265;28;20034;-72
2021/05/23 04:23:20;;;;;;;1.10;1.00;;;2.80;99.90;;;;;;4983690;28;20069;-72
2021/05/23 04:25:46;;;;;;;2.40;0.85;;;2.80;99.90;;;;;;4993398;28;20034;-72
2021/05/23 04:28:11;;;;;;;1.52;1.10;;;2.80;99.90;;;;;;4993914;28;20023;-71
2021/05/23 04:30:37;;;;;;;0.70;0.70;;;2.80;99.90;;;;;;4980417;28;20414;-72
2021/05/23 04:33:03;;;;;;;1.83;0.88;;;2.80;99.90;;;;;;4993874;28;20030;-72
2021/05/23 04:35:29;;;;;;;3.13;1.33;;;2.80;99.90;;;;;;4993385;28;20218;-72
2021/05/23 04:37:57;;;;;;;1.17;1.08;;;2.80;99.90;;;;;;4993084;28;20043;-72
2021/05/23 04:40:23;;;;;;;2.55;1.02;;;2.80;99.90;;;;;;4980081;28;20037;-72
2021/05/23 04:42:49;;;;;;;1.48;1.05;;;2.90;99.90;;;;;;4993179;28;20461;-72
2021/05/23 04:45:15;;;;;;;2.65;1.00;;;2.90;99.90;;;;;;4993371;28;20515;-72
2021/05/23 04:47:42;;;;;;;1.00;0.90;;;2.90;99.90;;;;;;4993358;28;20032;-72
2021/05/23 04:50:08;;;;;;;1.02;0.93;;;2.90;99.90;;;;;;4993158;28;20027;-72
2021/05/23 04:52:34;;;;;;;2.08;0.95;;;2.90;99.90;;;;;;4975578;28;20030;-72
2021/05/23 04:55:00;;;;;;;0.95;0.95;;;2.80;99.90;;;;;;4993044;28;20497;-71
2021/05/23 04:57:26;;;;;;;1.65;1.08;;;2.80;99.90;;;;;;4993107;28;20241;-71
2021/05/23 04:59:53;;;;;;;1.00;0.82;;;2.80;99.90;;;;;;4993336;28;20046;-72
2021/05/23 05:02:21;;;;;;;0.95;0.95;;;2.80;99.90;;;;;;4993080;28;20029;-72
2021/05/23 05:04:47;;;;;;;2.05;1.10;;;2.80;99.90;;;;;;4993087;28;20485;-72
2021/05/23 05:07:13;;;;;;;1.38;1.20;;;2.90;99.90;;;;;;4992813;28;20049;-72
2021/05/23 05:09:39;;;;;;;2.67;1.05;;;2.80;99.90;;;;;;4992745;28;20026;-72
2021/05/23 05:12:05;;;;;;;2.92;1.00;;;2.90;99.90;;;;;;4992905;28;20026;-71
2021/05/23 05:14:31;;;;;;;1.52;1.17;;;2.90;99.90;;;;;;4982233;28;20026;-71
2021/05/23 05:16:57;;;;;;;2.05;1.20;;;2.90;99.90;;;;;;4999688;28;20454;-72
2021/05/23 05:19:22;;;;;;;1.15;1.10;;;2.90;99.90;;;;;;4992673;28;20022;-72
2021/05/23 05:21:48;;;;;;;1.35;1.13;;;2.90;99.90;;;;;;4991731;28;20389;-72
2021/05/23 05:24:14;;;;;;;1.90;1.20;;;2.90;99.90;;;;;;4992827;28;20026;-72
2021/05/23 05:26:40;;;;;;;1.38;1.17;;;2.90;99.90;;;;;;4992805;28;20026;-72
2021/05/23 05:29:06;;;;;;;1.98;1.40;;;2.90;99.90;;;;;;4992712;28;20041;-72
2021/05/23 05:31:32;;;;;;;0.90;0.90;;;2.90;99.90;;;;;;4992433;28;20502;-72
2021/05/23 05:33:58;;;;;;;2.30;1.25;;;2.90;99.90;;;;;;5005773;28;20022;-72
2021/05/23 05:36:24;;;;;;;2.78;1.30;;;2.90;99.90;;;;;;4985732;28;20057;-72
2021/05/23 05:38:50;;;;;;;5.78;1.20;;;2.90;99.90;;;;;;4991261;28;20109;-72
2021/05/23 05:41:20;;;;;;;1.08;1.02;;;2.90;99.90;;;;;;4998866;28;20474;-72
2021/05/23 05:43:47;;;;;;;1.33;1.17;;;2.90;99.90;;;;;;4992457;28;20030;-72
2021/05/23 05:46:13;;;;;;;1.13;1.08;;;2.90;99.90;;;;;;4992373;28;20030;-72
2021/05/23 05:48:39;;;;;;;2.05;1.30;;;2.90;99.90;;;;;;4991968;28;20025;-72
2021/05/23 05:51:05;;;;;;;1.67;1.52;;;2.90;99.90;;;;;;4974813;28;20034;-72
2021/05/23 05:53:31;;;;;;;1.77;1.30;;;2.90;99.90;;;;;;4992434;28;20018;-72
2021/05/23 05:55:56;;;;;;;1.75;1.30;;;3.00;99.90;;;;;;4992032;28;20398;-72
2021/05/23 05:58:22;;;;;;;1.88;1.27;;;3.00;99.90;;;;;;4992045;28;20034;-72
2021/05/23 06:00:48;;;;;;;2.10;1.30;;;3.00;99.90;;;;;;4992040;28;20033;-72
2021/05/23 06:03:13;;;;;;;1.33;1.23;;;3.00;99.90;;;;;;4992330;28;20026;-72
2021/05/23 06:05:39;;;;;;;1.65;1.20;;;3.00;99.90;;;;;;4991940;28;20382;-72
2021/05/23 06:08:05;;;;;;;1.77;1.35;;;3.00;99.90;;;;;;4991975;28;20030;-72
2021/05/23 06:10:31;;;;;;;1.05;1.05;;;3.10;99.90;;;;;;4991962;28;20066;-73
2021/05/23 06:12:56;;;;;;;2.55;1.50;;;3.00;99.90;;;;;;4991788;28;20033;-72
2021/05/23 06:15:22;;;;;;;2.63;1.27;;;3.10;99.90;;;;;;4991810;28;20042;-72
2021/05/23 06:17:48;;;;;;;1.33;1.20;;;3.10;99.90;;;;;;4985938;28;20022;-72
2021/05/23 06:20:14;;;;;;;1.15;1.02;;;3.10;99.90;;;;;;4984513;28;20049;-72
2021/05/23 06:22:40;;;;;;;1.40;1.30;;;3.10;99.90;;;;;;4978311;28;20272;-72
2021/05/23 06:25:07;;;;;;;5.22;1.42;;;3.00;99.90;;;;;;4991984;28;20641;-72
2021/05/23 06:27:34;;;;;;;1.45;1.30;;;3.10;99.90;;;;;;4991734;28;20125;-72
2021/05/23 06:29:59;;;;;;;1.27;1.17;;;3.10;99.90;;;;;;4991769;28;20019;-73
2021/05/23 06:32:25;;;;;;;1.23;1.13;;;3.10;99.90;;;;;;4992675;28;20378;-72
2021/05/23 06:34:51;;;;;;;2.00;1.30;;;3.10;99.90;;;;;;4995551;28;20021;-72
2021/05/23 06:37:17;;;;;;;1.30;1.02;;;3.00;99.90;;;;;;4995672;28;20141;-72
2021/05/23 06:39:43;;;;;;;1.10;1.00;;;3.00;99.90;;;;;;4981633;28;20130;-73
2021/05/23 06:42:09;;;;;;;1.50;1.20;;;3.00;99.90;;;;;;4995768;28;20557;-73
2021/05/23 06:44:35;;;;;;;1.00;0.90;;;3.00;99.90;;;;;;4995581;28;20141;-73
2021/05/23 06:47:01;;;;;;;1.00;1.00;;;3.00;99.90;;;;;;4995744;28;20065;-73
2021/05/23 06:49:27;;;;;;;1.77;1.20;;;3.00;99.90;;;;;;4985036;28;20463;-73
2021/05/23 06:51:52;;;;;;;1.02;0.80;;;3.00;99.90;;;;;;4994922;28;20034;-72
2021/05/23 06:54:18;;;;;;;1.17;1.08;;;3.00;99.90;;;;;;5006366;28;20064;-73
2021/05/23 06:56:44;;;;;;;1.20;1.10;;;3.00;99.90;;;;;;4995077;28;20117;-73
2021/05/23 06:59:11;;;;;;;1.60;1.10;;;3.00;99.90;;;;;;4995543;28;20019;-73
2021/05/23 07:01:37;;;;;;;1.38;1.27;;;3.00;99.90;;;;;;4995289;28;20062;-72
2021/05/23 07:04:03;;;;;;;3.80;1.30;;;2.90;99.90;;;;;;4976651;28;20482;-73
2021/05/23 07:06:29;;;;;;;1.30;1.20;;;2.90;99.90;;;;;;4986806;28;20053;-73
2021/05/23 07:08:54;;;;;;;2.28;1.30;;;3.00;99.90;;;;;;4995160;28;20454;-73
2021/05/23 07:11:20;;;;;;;2.67;1.40;;;3.00;99.90;;;;;;4995129;28;20019;-73
2021/05/23 07:13:46;;;;;;;1.40;1.30;;;3.00;99.90;;;;;;4994945;28;20041;-73
2021/05/23 07:16:12;;;;;;;1.92;1.40;;;3.10;99.90;;;;;;4988156;28;20027;-72
2021/05/23 07:18:37;;;;;;;2.47;1.52;;;3.10;99.90;;;;;;4987991;28;20114;-73
2021/05/23 07:21:04;;;;;;;2.13;1.23;;;3.20;99.90;;;;;;4994903;28;20061;-73
2021/05/23 07:23:30;;;;;;;1.70;1.20;;;3.20;99.90;;;;;;4994864;28;20026;-72
2021/05/23 07:25:56;;;;;;;1.63;1.45;;;3.30;99.90;;;;;;4994611;28;20033;-72
2021/05/23 07:28:22;;;;;;;3.10;1.40;;;3.30;99.90;;;;;;4977385;28;20105;-72
2021/05/23 07:30:48;;;;;;;1.88;1.40;;;3.30;99.90;;;;;;4994586;28;20161;-72
2021/05/23 07:33:17;;;;;;;3.00;1.20;;;3.40;99.90;;;;;;4994642;28;20390;-72
2021/05/23 07:35:43;;;;;;;1.88;1.30;;;3.40;99.90;;;;;;4994465;28;20030;-72
2021/05/23 07:38:09;;;;;;;2.40;1.30;;;3.50;99.90;;;;;;4995918;28;20618;-72
2021/05/23 07:40:35;;;;;;;2.25;1.10;;;3.50;99.90;;;;;;5006913;28;20026;-73
2021/05/23 07:43:02;;;;;;;1.95;1.20;;;3.50;99.90;;;;;;4994579;28;20051;-72
2021/05/23 07:45:32;;;;;;;2.70;1.20;;;3.50;99.90;;;;;;4979935;28;20034;-74
2021/05/23 07:47:58;;;;;;;1.25;1.15;;;3.90;99.90;;;;;;4994249;28;20041;-73
2021/05/23 07:50:24;;;;;;;1.67;1.25;;;4.50;99.90;;;;;;4994440;28;20026;-74
2021/05/23 07:52:50;;;;;;;1.83;1.40;;;4.40;99.90;;;;;;4984298;28;20022;-77
2021/05/23 07:55:16;;;;;;;1.30;1.20;;;4.30;99.90;;;;;;4988616;28;20109;-77
2021/05/23 07:57:42;;;;;;;2.33;1.42;;;4.20;99.90;;;;;;4974610;28;20038;-76
2021/05/23 08:00:09;;;;;;;1.85;1.20;;;4.40;99.90;;;;;;4988921;28;20251;-76
2021/05/23 08:02:35;;;;;;;1.55;1.30;;;4.40;99.90;;;;;;4989154;28;20031;-76
2021/05/23 08:05:02;;;;;;;1.52;1.13;;;4.40;99.90;;;;;;4974717;28;20027;-79
2021/05/23 08:07:28;;;;;;;1.40;1.30;;;4.60;99.90;;;;;;4969428;28;20019;-78
2021/05/23 08:09:54;;;;;;;1.27;1.00;;;4.70;99.90;;;;;;4978032;28;20023;-79
2021/05/23 08:12:20;;;;;;;1.88;1.10;;;4.90;99.90;;;;;;4986073;28;20431;-79
2021/05/23 08:14:46;;;;;;;1.48;1.00;;;4.90;99.90;;;;;;4989994;28;20026;-79
2021/05/23 08:17:12;;;;;;;1.35;1.20;;;5.00;99.90;;;;;;5001946;28;20434;-79
2021/05/23 08:19:39;;;;;;;2.10;1.23;;;5.10;99.90;;;;;;4998990;28;20022;-79
2021/05/23 08:22:04;;;;;;;1.80;1.30;;;5.10;99.90;;;;;;4977591;28;20029;-79
2021/05/23 08:24:32;;;;;;;1.67;1.15;;;5.10;99.90;;;;;;4986571;28;20377;-78
2021/05/23 08:26:58;;;;;;;2.97;1.38;;;5.30;99.90;;;;;;4998058;28;20021;-79
2021/05/23 08:29:27;;;;;;;4.07;1.35;;;5.30;99.90;;;;;;4997258;28;20080;-76
2021/05/23 08:31:53;;;;;;;1.38;1.25;;;5.30;99.90;;;;;;4997750;28;20406;-76
2021/05/23 08:34:18;;;;;;;1.02;1.00;;;5.40;99.90;;;;;;4999800;28;20030;-77
2021/05/23 08:36:44;;;;;;;3.25;1.80;;;5.20;99.90;;;;;;4999231;28;20490;-77
2021/05/23 08:39:10;;;;;;;1.13;1.02;;;5.10;99.90;;;;;;5007397;28;20022;-77
2021/05/23 08:41:35;;;;;;;2.38;1.40;;;4.90;99.90;;;;;;4997550;28;20498;-77
2021/05/23 08:44:01;;;;;;;1.73;1.13;;;4.90;99.90;;;;;;4993638;28;20477;-79
2021/05/23 08:46:29;;;;;;;1.75;1.15;;;4.90;99.90;;;;;;4993419;28;20134;-74
2021/05/23 08:48:56;;;;;;;1.23;1.10;;;5.40;99.90;;;;;;4980055;28;20066;-74
2021/05/23 08:51:23;;;;;;;1.20;0.88;;;5.40;99.90;;;;;;4993781;28;20061;-73
2021/05/23 08:53:49;;;;;;;1.40;1.25;;;5.30;99.90;;;;;;4993060;28;20023;-82
2021/05/23 08:56:14;;;;;;;2.60;1.27;;;5.00;99.90;;;;;;4983625;28;20031;-80
2021/05/23 08:58:40;;;;;;;0.90;0.90;;;4.90;99.90;;;;;;4986796;28;20050;-81
2021/05/23 09:01:06;;;;;;;1.13;0.90;;;4.80;99.90;;;;;;4974505;28;20109;-80
2021/05/23 09:03:32;;;;;;;1.10;1.00;;;4.80;99.90;;;;;;4964250;28;20022;-78
2021/05/23 09:05:57;;;;;;;1.25;1.10;;;4.80;99.90;;;;;;4978357;28;20074;-77
2021/05/23 09:08:29;;;;;;;1.42;1.10;;;4.80;99.90;;;;;;4977914;28;20037;-78
2021/05/23 09:10:59;;;;;;;0.80;0.80;;;4.80;99.90;;;;;;4981588;28;20133;-77
2021/05/23 09:13:34;;;;;;;2.35;1.30;;;4.70;99.90;;;;;;4982636;28;20026;-76
2021/05/23 09:16:03;;;;;;;2.35;1.10;;;4.70;99.90;;;;;;4973264;28;20039;-76
2021/05/23 09:18:43;;;;;;;1.48;1.30;;;4.70;99.90;;;;;;4974920;28;20101;-77
2021/05/23 09:21:11;;;;;;;2.40;1.30;;;4.80;99.90;;;;;;4972563;28;20060;-82
2021/05/23 09:23:46;;;;;;;2.15;1.30;;;4.70;99.90;;;;;;4985999;28;20110;-78
2021/05/23 09:26:21;;;;;;;1.35;1.00;;;4.70;99.90;;;;;;4976806;28;20081;-78
2021/05/23 09:28:48;;;;;;;1.20;0.98;;;4.70;99.90;;;;;;4971016;28;20486;-77
2021/05/23 09:31:19;;;;;;;1.27;1.17;;;4.70;99.90;;;;;;4979195;28;20030;-79
2021/05/23 09:33:47;;;;;;;1.33;0.98;;;4.60;99.90;;;;;;4985740;28;20397;-77
2021/05/23 09:36:15;;;;;;;2.58;1.20;;;4.60;99.90;;;;;;4982456;28;20077;-79
2021/05/23 09:38:50;;;;;;;2.55;1.40;;;4.50;99.90;;;;;;4975633;28;20030;-79
2021/05/23 09:41:31;;;;;;;1.40;1.30;;;4.50;99.90;;;;;;4977933;28;20486;-79
2021/05/23 09:44:19;;;;;;;1.10;1.00;;;4.50;99.90;;;;;;4987787;28;20098;-81
2021/05/23 09:47:01;;;;;;;2.03;1.30;;;4.60;99.90;;;;;;4979967;28;20548;-79
2021/05/23 09:49:40;;;;;;;1.40;1.25;;;4.60;99.90;;;;;;4991076;28;20033;-78
2021/05/23 09:52:06;;;;;;;4.20;1.45;;;4.80;99.90;;;;;;4994609;28;20521;-77
2021/05/23 09:54:49;;;;;;;2.00;1.50;;;4.70;99.90;;;;;;4994708;28;20072;-79
2021/05/23 09:57:18;;;;;;;3.03;1.58;;;4.70;99.90;;;;;;4971896;28;20125;-71
2021/05/23 09:59:43;;;;;;;0.88;0.88;;;4.70;99.90;;;;;;4990271;28;20390;-70
2021/05/23 10:02:11;;;;;;;2.40;1.30;;;5.10;99.90;;;;;;4991730;28;20031;-69
2021/05/23 10:04:38;;;;;;;2.40;1.42;;;5.70;99.90;;;;;;4990155;28;20029;-71
2021/05/23 10:07:10;;;;;;;1.50;1.40;;;5.70;99.90;;;;;;4981187;28;20030;-71
2021/05/23 10:09:37;;;;;;;2.78;1.48;;;5.80;99.90;;;;;;5004513;28;20030;-71
2021/05/23 10:12:06;;;;;;;1.80;1.40;;;5.60;99.90;;;;;;4998942;28;20034;-71
2021/05/23 10:14:34;;;;;;;2.05;1.40;;;5.60;99.90;;;;;;4992939;28;20029;-71
2021/05/23 10:17:00;;;;;;;1.45;1.20;;;5.50;99.90;;;;;;4993807;28;20041;-71
2021/05/23 10:19:30;;;;;;;1.40;1.20;;;5.40;99.90;;;;;;5005352;28;20030;-71
2021/05/23 10:21:58;;;;;;;1.38;1.20;;;5.30;99.90;;;;;;5000933;28;20022;-71
2021/05/23 10:24:38;;;;;;;3.22;1.20;;;5.30;99.90;;;;;;5003888;28;20359;-71
2021/05/23 10:27:13;;;;;;;2.58;1.40;;;5.20;99.90;;;;;;5000161;28;20053;-72
2021/05/23 10:29:44;;;;;;;3.55;1.33;;;5.30;99.90;;;;;;4981421;28;20065;-72
2021/05/23 10:32:16;;;;;;;3.75;1.20;;;5.30;99.90;;;;;;4972183;28;20027;-72
2021/05/23 10:34:45;;;;;;;2.63;1.27;;;5.30;99.90;;;;;;4978525;28;20018;-72
2021/05/23 10:37:12;;;;;;;1.33;1.20;;;5.30;99.90;;;;;;4995860;28;20082;-69
2021/05/23 10:39:49;;;;;;;3.33;1.40;;;5.30;99.90;;;;;;5009376;28;20120;-68
2021/05/23 10:42:15;;;;;;;3.35;1.50;;;5.40;99.90;;;;;;4979805;28;20030;-72
2021/05/23 10:44:49;;;;;;;1.90;1.45;;;5.30;99.90;;;;;;4999741;28;20386;-71
2021/05/23 10:47:16;;;;;;;1.85;1.20;;;5.30;99.90;;;;;;4980461;28;20034;-68
2021/05/23 10:50:03;;;;;;;1.80;1.48;;;5.40;99.90;;;;;;4991552;28;20389;-68
2021/05/23 10:52:31;;;;;;;1.65;1.40;;;5.40;99.90;;;;;;4997794;28;20030;-68
2021/05/23 10:54:58;;;;;;;2.90;1.40;;;5.30;99.90;;;;;;4978848;28;20040;-71
2021/05/23 10:57:24;;;;;;;1.27;1.15;;;5.30;99.90;;;;;;5001239;28;20034;-71
2021/05/23 11:00:01;;;;;;;2.95;1.80;;;5.20;99.90;;;;;;4993596;28;20040;-72
2021/05/23 11:02:47;;;;;;;1.67;1.35;;;5.30;99.90;;;;;;4988176;28;20031;-71
2021/05/23 11:05:28;;;;;;;1.42;1.33;;;5.20;99.90;;;;;;4977476;28;20046;-71
2021/05/23 11:07:54;;;;;;;2.33;1.73;;;5.30;99.90;;;;;;4998778;28;20029;-71
2021/05/23 11:10:23;;;;;;;2.22;1.40;;;5.30;99.90;;;;;;4995366;28;20022;-71
2021/05/23 11:12:59;;;;;;;2.17;1.63;;;5.40;99.90;;;;;;4989642;28;20574;-71
2021/05/23 11:15:26;;;;;;;1.40;1.30;;;5.40;99.90;;;;;;4996038;28;20109;-71
2021/05/23 11:17:54;;;;;;;2.30;1.55;;;5.50;99.90;;;;;;4991833;28;20033;-71
2021/05/23 11:20:21;;;;;;;2.47;1.52;;;5.50;99.90;;;;;;4994693;28;20019;-71
2021/05/23 11:23:04;;;;;;;2.17;1.50;;;5.40;99.90;;;;;;5003381;28;20442;-71
2021/05/23 11:25:31;;;;;;;1.60;1.50;;;5.40;99.90;;;;;;4984064;28;20023;-71
2021/05/23 11:28:01;;;;;;;1.77;1.50;;;5.40;99.90;;;;;;4977179;28;20059;-71
2021/05/23 11:30:29;;;;;;;2.33;1.60;;;5.30;99.90;;;;;;4992189;28;20073;-71
2021/05/23 11:32:58;;;;;;;2.80;1.50;;;5.40;99.90;;;;;;4996854;28;20037;-71
2021/05/23 11:35:25;;;;;;;1.40;1.30;;;5.40;99.90;;;;;;5004961;28;20437;-71
2021/05/23 11:37:55;;;;;;;3.00;1.70;;;5.40;99.90;;;;;;5007716;28;20054;-71
2021/05/23 11:40:21;;;;;;;2.75;1.27;;;5.40;99.90;;;;;;5008712;28;20026;-72
2021/05/23 11:42:49;;;;;;;2.45;1.45;;;5.40;99.90;;;;;;4991553;28;20026;-71
2021/05/23 11:45:22;;;;;;;2.50;1.40;;;5.40;99.90;;;;;;4988365;28;20034;-71
2021/05/23 11:47:52;;;;;;;2.03;1.60;;;5.40;99.90;;;;;;4969718;28;20130;-72
2021/05/23 11:50:27;;;;;;;2.47;1.80;;;5.40;99.90;;;;;;4988727;28;20086;-71
2021/05/23 11:52:55;;;;;;;1.70;1.60;;;5.40;99.90;;;;;;4991328;28;20121;-71
2021/05/23 11:55:23;;;;;;;2.45;1.60;;;5.40;99.90;;;;;;5010342;28;20037;-70
2021/05/23 11:57:50;;;;;;;2.30;1.60;;;5.50;99.90;;;;;;5001875;28;20031;-75
2021/05/23 12:00:22;;;;;;;2.97;1.50;;;5.80;99.90;;;;;;4974271;28;20023;-71
2021/05/23 12:03:01;;;;;;;2.33;1.58;;;6.20;99.90;;;;;;4973835;28;20074;-71
2021/05/23 12:05:45;;;;;;;2.55;1.40;;;6.00;99.90;;;;;;4974912;28;20026;-71
2021/05/23 12:08:19;;;;;;;6.78;1.73;;;5.80;99.90;;;;;;4975511;28;20033;-71
2021/05/23 12:11:00;;;;;;;2.88;1.90;;;5.80;99.90;;;;;;4975185;28;20022;-70
2021/05/23 12:13:48;;;;;;;3.55;1.83;;;5.80;99.90;;;;;;4975107;28;20034;-69
2021/05/23 12:16:19;;;;;;;3.05;1.75;;;5.70;99.90;;;;;;4974941;28;20038;-69
2021/05/23 12:18:54;;;;;;;2.65;1.50;;;5.70;99.90;;;;;;4975127;28;20027;-70
2021/05/23 12:21:23;;;;;;;3.38;1.60;;;5.70;99.90;;;;;;4975051;28;20046;-70
2021/05/23 12:23:52;;;;;;;1.75;1.42;;;5.70;99.90;;;;;;4974922;28;20030;-70
2021/05/23 12:26:20;;;;;;;1.50;1.10;;;5.80;99.90;;;;;;4974926;28;20478;-71
2021/05/23 12:28:48;;;;;;;2.97;1.55;;;5.90;99.90;;;;;;4974667;28;20039;-71
2021/05/23 12:31:16;;;;;;;1.92;1.33;;;7.10;99.90;;;;;;4986700;28;20062;-71
2021/05/23 12:33:53;;;;;;;2.15;1.35;;;6.80;99.90;;;;;;4994345;28;20085;-70
2021/05/23 12:36:21;;;;;;;3.50;1.83;;;6.50;99.90;;;;;;4976355;28;20498;-71
2021/05/23 12:39:07;;;;;;;3.70;1.90;;;6.30;99.90;;;;;;4993260;28;20030;-72
2021/05/23 12:41:40;;;;;;;1.70;1.30;;;6.10;99.90;;;;;;5000002;28;20034;-71
2021/05/23 12:44:28;;;;;;;1.58;1.30;;;6.00;99.90;;;;;;5009447;28;20492;-72
2021/05/23 12:46:54;;;;;;;2.15;1.63;;;6.10;99.90;;;;;;5013166;28;20083;-71
2021/05/23 12:49:24;;;;;;;2.80;1.50;;;6.20;99.90;;;;;;5013297;28;20026;-72
2021/05/23 12:51:52;;;;;;;;;;;6.10;99.90;;;;;;5013830;28;20032;-69
2021/05/23 12:54:24;;;;;;;1.90;1.30;;;6.10;99.90;;;;;;5013428;28;19911;-78
2021/05/23 12:56:50;;;;;;;2.55;1.30;;;6.20;99.90;;;;;;5005984;28;20042;-80
2021/05/23 12:59:18;;;;;;;2.67;1.58;;;6.10;99.90;;;;;;4990003;28;20487;-81
2021/05/23 13:01:45;;;;;;;2.03;1.35;;;6.10;99.90;;;;;;4988831;28;20066;-81